Time;durP1;ratioP1;P1;durP2;ratioP2;P2;SDS_P1;SDS_P2;PMS_P1;PMS_P2;Temp;Humidity;BMP_temperature;BMP_pressure;BME280_temperature;BME280_humidity;BME280_pressure;Samples;Min_cycle;Max_cycle;Signal;HPM_P1;HPM_P2
2021/07/27 00:00:08;;;;;;;13.25;10.60;;;692.00;1817.60;;;;;;5073298;28;20024;-74
2021/07/27 00:02:33;;;;;;;14.82;11.23;;;692.00;1817.60;;;;;;5073240;28;20081;-75
2021/07/27 00:04:59;;;;;;;17.83;12.50;;;692.00;1817.60;;;;;;5073208;28;20412;-75
2021/07/27 00:07:25;;;;;;;16.17;12.38;;;691.90;1817.60;;;;;;5073106;28;20028;-74
2021/07/27 00:09:51;;;;;;;16.92;11.95;;;691.90;1817.60;;;;;;5073380;28;20020;-74
2021/07/27 00:12:17;;;;;;;17.45;12.40;;;691.90;1817.60;;;;;;5073340;28;20021;-75
2021/07/27 00:14:43;;;;;;;18.42;11.85;;;691.90;1817.60;;;;;;5073331;28;20025;-75
2021/07/27 00:17:09;;;;;;;17.88;11.40;;;691.90;1817.60;;;;;;5073373;28;20043;-74
2021/07/27 00:19:34;;;;;;;17.48;11.50;;;691.90;1817.60;;;;;;5073333;28;20035;-74
2021/07/27 00:22:00;;;;;;;22.42;11.95;;;691.90;1817.60;;;;;;5073289;28;20028;-75
2021/07/27 00:24:26;;;;;;;15.75;13.15;;;691.90;1817.60;;;;;;5073491;28;20028;-75
2021/07/27 00:26:54;;;;;;;19.55;12.80;;;691.90;1817.60;;;;;;5073223;28;20017;-74
2021/07/27 00:29:23;;;;;;;19.20;12.57;;;691.90;1817.60;;;;;;5073195;28;20025;-75
2021/07/27 00:31:50;;;;;;;18.77;13.07;;;691.80;1817.60;;;;;;5073262;28;20024;-75
2021/07/27 00:34:15;;;;;;;21.60;12.90;;;691.80;1817.60;;;;;;5073181;28;20036;-75
2021/07/27 00:36:41;;;;;;;19.42;12.60;;;691.80;1817.60;;;;;;5073091;28;20117;-74
2021/07/27 00:39:07;;;;;;;15.65;11.20;;;691.80;1817.60;;;;;;5055013;28;20033;-75
2021/07/27 00:41:34;;;;;;;19.33;12.18;;;691.80;1817.60;;;;;;5073051;28;20017;-75
2021/07/27 00:44:00;;;;;;;20.30;11.63;;;691.80;1817.60;;;;;;5073034;28;20115;-75
2021/07/27 00:46:25;;;;;;;15.80;11.85;;;691.80;1843.20;;;;;;5073480;28;20052;-75
2021/07/27 00:48:51;;;;;;;21.58;12.90;;;691.80;1817.60;;;;;;5077098;28;20082;-75
2021/07/27 00:51:17;;;;;;;21.35;13.25;;;691.80;1817.60;;;;;;5059216;28;20031;-75
2021/07/27 00:53:43;;;;;;;15.75;11.95;;;691.80;1817.60;;;;;;5076897;28;20028;-75
2021/07/27 00:56:09;;;;;;;18.42;12.00;;;691.80;1817.60;;;;;;5076809;28;20063;-75
2021/07/27 00:58:36;;;;;;;14.23;11.95;;;691.80;1843.20;;;;;;5076532;28;20045;-75
2021/07/27 01:01:02;;;;;;;16.85;11.45;;;691.80;1843.20;;;;;;5076555;28;20108;-75
2021/07/27 01:03:28;;;;;;;18.65;12.32;;;691.80;1843.20;;;;;;5076669;28;20111;-75
2021/07/27 01:05:54;;;;;;;17.20;11.45;;;691.80;1843.20;;;;;;5076526;28;20028;-74
2021/07/27 01:08:19;;;;;;;15.10;12.52;;;691.70;1843.20;;;;;;5076945;28;20024;-75
2021/07/27 01:10:47;;;;;;;16.40;12.02;;;691.80;1843.20;;;;;;5076589;28;20100;-74
2021/07/27 01:13:13;;;;;;;17.92;11.73;;;691.70;1843.20;;;;;;5076474;28;20032;-75
2021/07/27 01:15:38;;;;;;;20.70;12.43;;;691.60;1843.20;;;;;;5058510;28;20020;-74
2021/07/27 01:18:08;;;;;;;18.30;12.77;;;691.60;1843.20;;;;;;5076310;28;20056;-74
2021/07/27 01:39:49;;;;;;;19.08;12.73;;;691.50;1868.80;;;;;;5069402;28;20115;-74
2021/07/27 01:42:15;;;;;;;18.92;13.00;;;691.50;1868.80;;;;;;5075928;28;20023;-75
2021/07/27 01:44:45;;;;;;;19.88;12.55;;;691.50;1868.80;;;;;;5076228;28;20103;-74
2021/07/27 01:47:19;;;;;;;18.60;12.50;;;691.40;1868.80;;;;;;5075939;28;20020;-74
2021/07/27 01:49:46;;;;;;;16.70;11.50;;;691.30;1894.40;;;;;;5075764;28;20032;-74
2021/07/27 01:52:14;;;;;;;15.90;13.43;;;691.30;1894.40;;;;;;5058056;28;20032;-74
2021/07/27 01:54:46;;;;;;;14.63;11.13;;;691.30;1868.80;;;;;;5057773;28;20413;-74
2021/07/27 01:57:15;;;;;;;15.95;12.63;;;691.30;1894.40;;;;;;5075138;28;20020;-74
2021/07/27 01:59:41;;;;;;;17.27;11.93;;;691.40;1868.80;;;;;;5057716;28;20036;-74
2021/07/27 02:02:11;;;;;;;19.42;13.07;;;691.30;1894.40;;;;;;5075886;28;20016;-75
2021/07/27 02:04:37;;;;;;;21.50;13.23;;;691.40;1868.80;;;;;;5075503;28;20036;-74
2021/07/27 02:07:03;;;;;;;17.67;11.60;;;691.40;1868.80;;;;;;5075789;28;20021;-74
2021/07/27 02:09:36;;;;;;;21.75;12.55;;;691.40;1868.80;;;;;;5075640;28;20107;-74
2021/07/27 02:12:02;;;;;;;;;;;691.30;1868.80;;;;;;5075659;28;20546;-74
2021/07/27 02:15:03;;;;;;;20.35;12.55;;;691.40;1868.80;;;;;;5075142;28;20004;-74
2021/07/27 02:17:14;;;;;;;16.92;11.65;;;691.30;1868.80;;;;;;5074727;28;20036;-74
2021/07/27 02:19:40;;;;;;;20.10;13.07;;;691.30;1868.80;;;;;;5075050;28;20020;-74
2021/07/27 02:22:06;;;;;;;18.17;13.07;;;691.30;1894.40;;;;;;5075007;28;20027;-74
2021/07/27 02:24:32;;;;;;;18.45;13.38;;;691.30;1894.40;;;;;;5074894;28;20020;-74
2021/07/27 02:26:57;;;;;;;20.02;13.73;;;691.30;1894.40;;;;;;5074913;28;20530;-74
2021/07/27 02:29:23;;;;;;;16.17;12.90;;;691.30;1894.40;;;;;;5074841;28;20427;-75
2021/07/27 02:31:49;;;;;;;18.02;12.45;;;691.30;1894.40;;;;;;5074984;28;20035;-75
2021/07/27 02:34:15;;;;;;;19.83;13.50;;;691.30;1894.40;;;;;;5075072;28;20033;-74
2021/07/27 02:36:41;;;;;;;16.45;13.27;;;691.30;1894.40;;;;;;5074899;28;20024;-74
2021/07/27 02:39:07;;;;;;;19.25;13.45;;;691.30;1920.00;;;;;;5074751;28;20110;-74
2021/07/27 02:41:34;;;;;;;19.85;13.77;;;691.20;1920.00;;;;;;5056880;28;20020;-74
2021/07/27 02:44:00;;;;;;;24.20;13.27;;;691.20;1894.40;;;;;;5056814;28;20028;-74
2021/07/27 02:46:27;;;;;;;14.80;12.90;;;691.20;1894.40;;;;;;5056775;28;20389;-74
2021/07/27 02:48:52;;;;;;;20.80;12.77;;;666.50;1894.40;;;;;;5056724;28;20028;-75
2021/07/27 02:51:18;;;;;;;18.75;12.48;;;666.40;1920.00;;;;;;5056730;28;20385;-74
2021/07/27 02:53:44;;;;;;;19.05;12.77;;;666.50;1894.40;;;;;;5056568;28;20029;-75
2021/07/27 02:56:17;;;;;;;22.50;12.95;;;666.50;1894.40;;;;;;5074722;28;20062;-75
2021/07/27 02:58:43;;;;;;;19.02;13.35;;;666.50;1894.40;;;;;;5074302;28;20492;-74
2021/07/27 03:01:09;;;;;;;19.30;12.43;;;666.50;1894.40;;;;;;5056451;28;20024;-74
2021/07/27 03:03:37;;;;;;;30.17;13.50;;;666.40;1894.40;;;;;;5074352;28;20532;-74
2021/07/27 03:06:03;;;;;;;22.92;13.65;;;666.40;1894.40;;;;;;5074353;28;20090;-75
2021/07/27 03:08:52;;;;;;;19.27;12.40;;;666.40;1894.40;;;;;;5056364;28;20029;-74
2021/07/27 03:11:19;;;;;;;18.00;13.02;;;666.40;1894.40;;;;;;5073931;28;20017;-75
2021/07/27 03:13:45;;;;;;;27.80;13.68;;;666.40;1894.40;;;;;;5074184;28;20376;-75
2021/07/27 03:16:19;;;;;;;18.95;13.57;;;666.40;1894.40;;;;;;5074104;28;20024;-75
2021/07/27 03:18:46;;;;;;;21.75;13.10;;;666.40;1894.40;;;;;;5056169;28;20366;-75
2021/07/27 03:21:17;;;;;;;20.13;12.73;;;666.40;1894.40;;;;;;5074004;28;20026;-74
2021/07/27 03:23:44;;;;;;;19.95;13.20;;;666.40;1894.40;;;;;;5056113;28;20037;-74
2021/07/27 03:26:10;;;;;;;20.05;13.00;;;666.40;1894.40;;;;;;5073908;28;20473;-74
2021/07/27 03:28:36;;;;;;;19.80;13.18;;;666.40;1894.40;;;;;;5074145;28;20030;-75
2021/07/27 03:31:02;;;;;;;22.08;13.70;;;666.40;1894.40;;;;;;5073896;28;20035;-74
2021/07/27 03:33:28;;;;;;;20.85;13.75;;;666.40;1894.40;;;;;;5073803;28;20028;-74
2021/07/27 03:35:54;;;;;;;26.80;13.57;;;666.40;1894.40;;;;;;5073783;28;20020;-74
2021/07/27 03:38:20;;;;;;;20.30;13.48;;;666.40;1894.40;;;;;;5073677;28;20044;-75
2021/07/27 03:40:46;;;;;;;22.38;12.18;;;666.40;1868.80;;;;;;5073853;28;20017;-74
2021/07/27 03:43:12;;;;;;;23.45;14.13;;;666.40;1894.40;;;;;;5073672;28;20052;-74
2021/07/27 03:45:37;;;;;;;22.33;13.73;;;666.40;1894.40;;;;;;5073759;28;20114;-75
2021/07/27 03:48:03;;;;;;;23.52;14.15;;;666.40;1894.40;;;;;;5055716;28;20031;-75
2021/07/27 03:50:29;;;;;;;26.42;12.93;;;666.30;1894.40;;;;;;5073948;28;20067;-75
2021/07/27 03:52:55;;;;;;;18.77;13.35;;;666.30;1894.40;;;;;;5073509;28;20098;-75
2021/07/27 03:55:22;;;;;;;23.00;14.15;;;666.30;1894.40;;;;;;5073554;28;20016;-74
2021/07/27 03:57:47;;;;;;;24.08;14.52;;;666.50;1894.40;;;;;;5052276;28;20037;-75
2021/07/27 04:00:14;;;;;;;21.95;13.60;;;666.30;1894.40;;;;;;5053505;28;20051;-74
2021/07/27 04:02:40;;;;;;;19.23;13.10;;;666.30;1894.40;;;;;;5053418;28;20031;-74
2021/07/27 04:05:07;;;;;;;24.10;13.10;;;666.40;1894.40;;;;;;5053611;28;20441;-74
2021/07/27 04:07:33;;;;;;;27.77;13.80;;;666.30;1894.40;;;;;;5053407;28;20025;-75
2021/07/27 04:10:00;;;;;;;24.52;12.45;;;666.30;1894.40;;;;;;5053363;28;20021;-75
2021/07/27 04:12:26;;;;;;;32.63;13.30;;;666.30;1894.40;;;;;;5053904;28;20065;-75
2021/07/27 04:14:52;;;;;;;23.25;12.60;;;666.30;1894.40;;;;;;5053332;28;20061;-75
2021/07/27 04:17:21;;;;;;;27.25;12.82;;;666.30;1894.40;;;;;;5051965;28;20029;-75
2021/07/27 04:19:48;;;;;;;21.13;13.20;;;666.30;1894.40;;;;;;5052061;28;20024;-75
2021/07/27 04:22:14;;;;;;;19.10;12.68;;;666.30;1894.40;;;;;;5055106;28;20031;-75
2021/07/27 04:24:40;;;;;;;20.02;13.38;;;666.30;1894.40;;;;;;5057385;28;20409;-74
2021/07/27 04:27:06;;;;;;;27.95;13.10;;;666.40;1894.40;;;;;;5056138;28;20021;-74
2021/07/27 04:29:33;;;;;;;18.50;12.75;;;666.40;1894.40;;;;;;5057589;28;20438;-74
2021/07/27 04:31:59;;;;;;;21.63;12.88;;;666.40;1894.40;;;;;;5056087;28;20512;-74
2021/07/27 04:34:25;;;;;;;21.50;11.93;;;666.40;1894.40;;;;;;5057458;28;20033;-74
2021/07/27 04:36:51;;;;;;;19.85;12.82;;;666.40;1894.40;;;;;;5057250;28;20017;-74
2021/07/27 04:39:17;;;;;;;23.65;12.13;;;666.40;1894.40;;;;;;5055875;28;20500;-75
2021/07/27 04:41:43;;;;;;;23.35;12.57;;;666.40;1868.80;;;;;;5055769;28;20021;-74
2021/07/27 04:44:09;;;;;;;26.65;13.40;;;666.50;1868.80;;;;;;5057079;28;20056;-75
2021/07/27 04:46:38;;;;;;;21.30;13.38;;;666.50;1894.40;;;;;;5057042;28;20021;-75
2021/07/27 04:49:04;;;;;;;25.38;13.27;;;666.40;1894.40;;;;;;5039155;28;20032;-75
2021/07/27 04:51:31;;;;;;;14.32;12.05;;;666.50;1894.40;;;;;;5056981;28;20428;-74
2021/07/27 04:54:03;;;;;;;22.70;13.57;;;666.50;1894.40;;;;;;5055550;28;20025;-75
2021/07/27 04:56:32;;;;;;;24.23;13.27;;;691.20;1868.80;;;;;;5055667;28;20033;-74
2021/07/27 04:58:58;;;;;;;19.23;12.90;;;691.20;1868.80;;;;;;5072241;28;20493;-75
2021/07/27 05:01:24;;;;;;;19.92;12.75;;;691.20;1868.80;;;;;;5076673;28;20078;-75
2021/07/27 05:03:50;;;;;;;22.50;13.05;;;691.30;1868.80;;;;;;5076654;28;20487;-74
2021/07/27 05:06:21;;;;;;;19.38;11.13;;;691.30;1868.80;;;;;;5076516;28;20028;-75
2021/07/27 05:08:47;;;;;;;22.88;11.80;;;691.30;1868.80;;;;;;5076656;28;20028;-74
2021/07/27 05:11:13;;;;;;;16.98;11.90;;;691.30;1868.80;;;;;;5076512;28;20027;-74
2021/07/27 05:13:39;;;;;;;24.17;12.55;;;691.30;1868.80;;;;;;5076467;28;20051;-75
2021/07/27 05:16:11;;;;;;;18.48;11.60;;;691.40;1843.20;;;;;;5058453;28;20028;-74
2021/07/27 05:18:37;;;;;;;19.60;11.90;;;691.40;1843.20;;;;;;5058350;28;20035;-74
2021/07/27 05:21:03;;;;;;;20.42;12.48;;;691.40;1843.20;;;;;;5076708;28;20032;-75
2021/07/27 05:23:29;;;;;;;20.05;11.75;;;691.40;1868.80;;;;;;5076247;28;20028;-74
2021/07/27 05:25:55;;;;;;;21.55;11.43;;;691.40;1843.20;;;;;;5076276;28;20027;-75
2021/07/27 05:28:22;;;;;;;19.77;12.07;;;691.40;1843.20;;;;;;5058247;28;20032;-75
2021/07/27 05:30:48;;;;;;;18.00;11.07;;;691.40;1868.80;;;;;;5076128;28;20052;-74
2021/07/27 05:33:14;;;;;;;26.85;13.68;;;691.50;1868.80;;;;;;5075816;28;20062;-74
2021/07/27 05:35:39;;;;;;;21.95;13.07;;;691.50;1843.20;;;;;;5076075;28;20020;-74
2021/07/27 05:38:05;;;;;;;28.48;12.27;;;691.50;1843.20;;;;;;5076135;28;20542;-75
2021/07/27 05:40:31;;;;;;;23.98;11.95;;;691.60;1843.20;;;;;;5075853;28;20477;-74
2021/07/27 05:43:01;;;;;;;21.95;12.50;;;691.60;1843.20;;;;;;5075819;28;20052;-74
2021/07/27 05:45:27;;;;;;;24.10;12.60;;;691.60;1843.20;;;;;;5076000;28;20013;-75
2021/07/27 05:47:53;;;;;;;20.75;13.13;;;691.70;1843.20;;;;;;5075720;28;20103;-74
2021/07/27 05:50:20;;;;;;;20.85;11.48;;;691.60;1843.20;;;;;;5075604;28;20028;-74
2021/07/27 05:52:46;;;;;;;25.15;16.08;;;691.70;1817.60;;;;;;5075617;28;20111;-75
2021/07/27 05:55:13;;;;;;;23.40;12.65;;;691.80;1817.60;;;;;;5075818;28;20103;-74
2021/07/27 05:57:39;;;;;;;18.70;12.68;;;691.80;1817.60;;;;;;5075158;28;20083;-74
2021/07/27 06:00:05;;;;;;;18.48;12.43;;;691.80;1817.60;;;;;;5075735;28;20056;-74
2021/07/27 06:02:32;;;;;;;22.63;15.45;;;691.90;1817.60;;;;;;5075388;28;20103;-74
2021/07/27 06:04:57;;;;;;;21.08;11.82;;;691.90;1792.00;;;;;;5075683;28;20031;-74
2021/07/27 06:07:23;;;;;;;22.20;13.23;;;691.90;1792.00;;;;;;5057289;28;20120;-74
2021/07/27 06:09:49;;;;;;;29.77;13.68;;;691.90;1792.00;;;;;;5075855;28;20028;-74
2021/07/27 06:12:16;;;;;;;22.67;13.70;;;691.90;1766.40;;;;;;5075183;28;20045;-74
2021/07/27 06:14:42;;;;;;;25.38;12.77;;;692.00;1766.40;;;;;;5075254;28;20028;-74
2021/07/27 06:17:14;;;;;;;21.95;13.23;;;692.00;1740.80;;;;;;5075180;28;20025;-75
2021/07/27 06:19:40;;;;;;;20.02;12.38;;;692.10;1715.20;;;;;;5075094;28;20076;-74
2021/07/27 06:22:06;;;;;;;19.48;11.73;;;692.10;1740.80;;;;;;5074987;28;20051;-74
2021/07/27 06:24:31;;;;;;;22.75;12.77;;;716.80;1766.40;;;;;;5056978;28;20028;-75
2021/07/27 06:26:57;;;;;;;22.02;12.38;;;716.80;1766.40;;;;;;5075243;28;20031;-75
2021/07/27 06:29:23;;;;;;;19.33;11.38;;;716.80;1740.80;;;;;;5074901;28;20050;-74
2021/07/27 06:31:49;;;;;;;17.83;11.38;;;716.90;1766.40;;;;;;5074830;28;20021;-74
2021/07/27 06:34:15;;;;;;;19.27;11.27;;;716.90;1740.80;;;;;;5056919;28;20480;-74
2021/07/27 06:36:41;;;;;;;17.63;11.23;;;716.90;1740.80;;;;;;5075043;28;20105;-75
2021/07/27 06:39:06;;;;;;;23.75;11.38;;;716.90;1740.80;;;;;;5057422;28;20044;-74
2021/07/27 06:41:32;;;;;;;19.65;11.32;;;717.00;1740.80;;;;;;5075126;28;20025;-74
2021/07/27 06:43:58;;;;;;;29.58;11.73;;;717.00;1740.80;;;;;;5074078;28;20024;-74
2021/07/27 06:46:24;;;;;;;17.83;11.88;;;717.00;1740.80;;;;;;5074616;28;20376;-74
2021/07/27 06:48:50;;;;;;;19.40;12.68;;;717.20;1715.20;;;;;;5056719;28;20591;-74
2021/07/27 06:51:18;;;;;;;23.25;12.45;;;717.30;1715.20;;;;;;5056694;28;20111;-74
2021/07/27 06:53:44;;;;;;;23.88;12.10;;;717.30;1689.60;;;;;;5074543;28;20086;-74
2021/07/27 06:56:11;;;;;;;18.55;11.32;;;717.50;1689.60;;;;;;5074513;28;20025;-75
2021/07/27 06:58:39;;;;;;;23.08;10.20;;;717.50;1689.60;;;;;;5074199;28;20493;-75
2021/07/27 07:01:10;;;;;;;14.13;9.63;;;717.50;1638.40;;;;;;5056587;28;20021;-75
2021/07/27 07:03:42;;;;;;;22.48;11.10;;;717.50;1638.40;;;;;;5074439;28;20435;-75
2021/07/27 07:06:13;;;;;;;21.98;9.90;;;717.50;1664.00;;;;;;5074355;28;20500;-75
2021/07/27 07:08:39;;;;;;;19.20;10.00;;;717.50;1612.80;;;;;;5074370;28;20028;-74
2021/07/27 07:11:07;;;;;;;24.65;10.32;;;717.50;1638.40;;;;;;5074310;28;20021;-74
2021/07/27 07:13:33;;;;;;;20.90;11.35;;;717.40;1612.80;;;;;;5074252;28;20108;-74
2021/07/27 07:15:59;;;;;;;15.60;9.48;;;717.50;1638.40;;;;;;5074106;28;20377;-75
2021/07/27 07:18:25;;;;;;;19.13;9.13;;;717.50;1638.40;;;;;;5074070;28;20469;-74
2021/07/27 07:20:52;;;;;;;18.70;8.82;;;717.60;1638.40;;;;;;5073967;28;20021;-74
2021/07/27 07:23:19;;;;;;;27.92;9.52;;;717.70;1638.40;;;;;;5074055;28;20020;-76
2021/07/27 07:25:46;;;;;;;25.90;9.60;;;742.40;1664.00;;;;;;5056009;28;20065;-75
2021/07/27 07:28:13;;;;;;;18.63;9.55;;;742.40;1664.00;;;;;;5073438;28;20016;-72
2021/07/27 07:30:39;;;;;;;21.85;9.13;;;742.40;1664.00;;;;;;5073254;28;20039;-74
2021/07/27 07:33:05;;;;;;;27.98;9.63;;;742.40;1664.00;;;;;;5073403;28;20016;-75
2021/07/27 07:35:31;;;;;;;16.92;9.20;;;742.50;1638.40;;;;;;5072869;28;20021;-72
2021/07/27 07:37:57;;;;;;;17.63;8.60;;;742.50;1638.40;;;;;;5055333;28;20127;-75
2021/07/27 07:40:23;;;;;;;17.75;8.68;;;742.50;1638.40;;;;;;5073013;28;20052;-76
2021/07/27 07:42:49;;;;;;;18.77;8.55;;;742.50;1638.40;;;;;;5055121;28;20075;-76
2021/07/27 07:45:15;;;;;;;24.60;8.65;;;742.50;1638.40;;;;;;5073189;28;20473;-75
2021/07/27 07:47:43;;;;;;;18.58;8.93;;;742.50;1638.40;;;;;;5073321;28;20032;-76
2021/07/27 07:50:10;;;;;;;17.23;8.18;;;742.50;1638.40;;;;;;5073829;28;20046;-76
2021/07/27 07:52:36;;;;;;;17.75;8.25;;;742.60;1638.40;;;;;;5073509;28;20024;-75
2021/07/27 07:55:06;;;;;;;22.92;8.93;;;742.60;1638.40;;;;;;5073042;28;20028;-79
2021/07/27 07:57:33;;;;;;;22.02;8.02;;;742.50;1664.00;;;;;;5072848;28;20063;-77
2021/07/27 08:00:00;;;;;;;16.58;8.27;;;742.60;1664.00;;;;;;5073060;28;20106;-78
2021/07/27 08:02:30;;;;;;;21.75;7.97;;;742.60;1638.40;;;;;;5073374;28;20504;-77
2021/07/27 08:04:55;;;;;;;29.75;8.63;;;742.60;1587.20;;;;;;5055048;28;20031;-77
2021/07/27 08:07:22;;;;;;;15.13;7.65;;;742.60;1612.80;;;;;;5073192;28;20154;-77
2021/07/27 08:09:48;;;;;;;24.52;8.02;;;742.60;1612.80;;;;;;5073195;28;20017;-77
2021/07/27 08:12:15;;;;;;;24.48;8.50;;;742.60;1561.60;;;;;;5073355;28;20032;-78
2021/07/27 08:14:43;;;;;;;24.38;8.32;;;742.60;1612.80;;;;;;5072526;28;20035;-77
2021/07/27 08:17:09;;;;;;;18.63;7.68;;;742.70;1612.80;;;;;;5072700;28;20017;-77
2021/07/27 08:19:35;;;;;;;21.95;8.02;;;742.80;1612.80;;;;;;5054304;28;20079;-78
2021/07/27 08:22:01;;;;;;;29.30;7.80;;;742.70;1612.80;;;;;;5072515;28;20044;-76
2021/07/27 08:24:27;;;;;;;24.48;8.50;;;742.70;1612.80;;;;;;5072717;28;20405;-76
2021/07/27 08:26:53;;;;;;;24.25;8.88;;;742.70;1612.80;;;;;;5072742;28;20024;-77
2021/07/27 08:29:18;;;;;;;30.35;8.93;;;742.80;1612.80;;;;;;5053813;28;20384;-77
2021/07/27 08:31:49;;;;;;;22.17;9.73;;;742.80;1612.80;;;;;;5071867;28;20107;-77
2021/07/27 08:34:17;;;;;;;20.13;8.07;;;742.80;1638.40;;;;;;5072206;28;20536;-77
2021/07/27 08:36:44;;;;;;;22.60;8.18;;;742.80;1612.80;;;;;;5062972;28;20032;-77
2021/07/27 08:39:10;;;;;;;21.55;8.63;;;742.80;1612.80;;;;;;5072471;28;20028;-77
2021/07/27 08:41:38;;;;;;;29.38;7.80;;;742.80;1638.40;;;;;;5054515;28;20027;-76
2021/07/27 08:44:16;;;;;;;28.05;8.07;;;742.80;1612.80;;;;;;5072972;28;20082;-76
2021/07/27 08:46:45;;;;;;;19.38;7.32;;;742.90;1612.80;;;;;;5072951;28;20021;-76
2021/07/27 08:49:13;;;;;;;25.92;8.57;;;742.90;1612.80;;;;;;5055036;28;20021;-77
2021/07/27 08:51:39;;;;;;;36.17;7.45;;;742.90;1612.80;;;;;;5073001;28;20544;-77
2021/07/27 08:54:07;;;;;;;24.05;7.20;;;742.90;1612.80;;;;;;5073411;28;20469;-81
2021/07/27 08:56:33;;;;;;;36.92;8.52;;;742.90;1638.40;;;;;;5071910;28;20036;-81
2021/07/27 08:58:59;;;;;;;26.42;8.10;;;742.80;1612.80;;;;;;5069372;28;20401;-81
2021/07/27 09:01:26;;;;;;;35.65;8.25;;;742.80;1638.40;;;;;;5072329;28;20042;-80
2021/07/27 09:03:52;;;;;;;25.27;7.18;;;742.80;1638.40;;;;;;5072397;28;20486;-75
2021/07/27 09:06:22;;;;;;;33.40;8.07;;;742.80;1638.40;;;;;;5072428;28;20103;-76
2021/07/27 09:08:48;;;;;;;23.33;7.15;;;742.80;1638.40;;;;;;5074899;28;20029;-76
2021/07/27 09:11:17;;;;;;;19.10;6.82;;;742.70;1638.40;;;;;;5076049;28;20013;-76
2021/07/27 09:13:55;;;;;;;20.15;7.45;;;742.70;1638.40;;;;;;5075669;28;20028;-77
2021/07/27 09:16:21;;;;;;;20.80;7.38;;;742.80;1638.40;;;;;;5057846;28;20043;-78
2021/07/27 09:19:00;;;;;;;27.88;6.90;;;742.70;1638.40;;;;;;5069203;28;20075;-73
2021/07/27 09:21:29;;;;;;;13.88;6.32;;;742.70;1638.40;;;;;;5070898;28;20017;-72
2021/07/27 09:23:56;;;;;;;23.75;6.40;;;742.70;1638.40;;;;;;5072936;28;20036;-72
2021/07/27 09:26:22;;;;;;;26.55;7.63;;;742.70;1638.40;;;;;;5074084;28;20020;-75
2021/07/27 09:28:49;;;;;;;15.63;6.10;;;742.70;1638.40;;;;;;5075396;28;20021;-76
2021/07/27 09:31:25;;;;;;;16.63;6.28;;;742.70;1612.80;;;;;;5072240;28;20568;-76
2021/07/27 09:33:51;;;;;;;23.45;6.93;;;742.80;1612.80;;;;;;5075196;28;20115;-76
2021/07/27 09:36:28;;;;;;;21.08;6.88;;;742.70;1612.80;;;;;;5075798;28;20114;-75
2021/07/27 09:39:04;;;;;;;24.92;6.63;;;742.80;1612.80;;;;;;5075872;28;20386;-75
2021/07/27 09:41:30;;;;;;;25.45;7.55;;;742.80;1587.20;;;;;;5076065;28;20021;-77
2021/07/27 09:43:57;;;;;;;32.65;8.73;;;742.80;1587.20;;;;;;5057804;28;20025;-73
2021/07/27 09:46:25;;;;;;;27.67;7.88;;;742.80;1587.20;;;;;;5075311;28;20023;-76
2021/07/27 09:48:52;;;;;;;26.40;7.38;;;742.90;1587.20;;;;;;5075314;28;20362;-76
2021/07/27 09:51:18;;;;;;;26.00;7.35;;;742.90;1587.20;;;;;;5069212;28;20288;-74
2021/07/27 09:53:48;;;;;;;41.80;7.40;;;742.90;1561.60;;;;;;5070927;28;20024;-76
2021/07/27 09:56:14;;;;;;;34.67;6.50;;;742.90;1561.60;;;;;;5074377;28;20033;-75
2021/07/27 09:58:41;;;;;;;37.83;7.32;;;743.00;1561.60;;;;;;5073764;28;20097;-75
2021/07/27 10:01:12;;;;;;;30.25;7.28;;;743.00;1536.00;;;;;;5074416;28;20095;-74
2021/07/27 10:03:52;;;;;;;24.95;7.72;;;743.00;1561.60;;;;;;5074397;28;20020;-76
2021/07/27 10:06:26;;;;;;;25.13;7.10;;;743.00;1536.00;;;;;;5074431;28;20078;-75
2021/07/27 10:08:57;;;;;;;20.25;5.95;;;743.00;1561.60;;;;;;5074102;28;20431;-76
2021/07/27 10:11:37;;;;;;;22.60;5.85;;;743.00;1510.40;;;;;;5073901;28;20046;-76
2021/07/27 10:14:12;;;;;;;19.00;6.47;;;743.00;1510.40;;;;;;5072613;28;20024;-75
2021/07/27 10:16:38;;;;;;;18.35;6.05;;;743.00;1536.00;;;;;;5072513;28;20067;-76
2021/07/27 10:19:20;;;;;;;23.52;7.10;;;743.00;1536.00;;;;;;5054380;28;20056;-74
2021/07/27 10:22:02;;;;;;;28.35;6.22;;;743.10;1459.20;;;;;;5071944;28;20566;-75
2021/07/27 10:24:37;;;;;;;29.67;6.38;;;743.10;1510.40;;;;;;5072142;28;20017;-76
2021/07/27 10:27:10;;;;;;;29.65;6.00;;;743.10;1536.00;;;;;;5072439;28;20504;-77
2021/07/27 10:29:36;;;;;;;25.52;5.97;;;743.00;1536.00;;;;;;5069973;28;20534;-76
2021/07/27 10:32:22;;;;;;;18.92;6.28;;;743.00;1536.00;;;;;;5072120;28;20021;-76
2021/07/27 10:34:48;;;;;;;26.60;5.78;;;743.00;1536.00;;;;;;5071912;28;20035;-76
2021/07/27 10:37:18;;;;;;;13.85;5.22;;;743.00;1536.00;;;;;;5072088;28;20020;-76
2021/07/27 10:39:48;;;;;;;20.73;5.53;;;743.10;1510.40;;;;;;5072192;28;20032;-77
2021/07/27 10:42:14;;;;;;;16.48;5.30;;;743.10;1536.00;;;;;;5069698;28;20024;-76
2021/07/27 10:44:40;;;;;;;16.92;5.53;;;743.10;1536.00;;;;;;5071946;28;20096;-75
2021/07/27 10:47:06;;;;;;;17.00;5.05;;;743.00;1536.00;;;;;;5071888;28;20104;-75
2021/07/27 10:49:32;;;;;;;22.40;5.93;;;743.10;1510.40;;;;;;5071418;28;20033;-74
2021/07/27 10:52:02;;;;;;;19.42;5.45;;;743.10;1510.40;;;;;;5054082;28;20021;-75
2021/07/27 10:54:31;;;;;;;19.88;5.32;;;743.10;1510.40;;;;;;5071379;28;20060;-75
2021/07/27 10:57:05;;;;;;;30.90;5.88;;;743.10;1510.40;;;;;;5072013;28;20091;-76
2021/07/27 10:59:34;;;;;;;22.77;5.65;;;743.00;1510.40;;;;;;5070979;28;20056;-74
2021/07/27 11:02:00;;;;;;;17.58;5.28;;;743.00;1510.40;;;;;;5071900;28;20019;-75
2021/07/27 11:04:31;;;;;;;22.45;5.97;;;743.10;1459.20;;;;;;5071568;28;20032;-73
2021/07/27 11:07:17;;;;;;;20.35;5.15;;;743.10;1484.80;;;;;;5069503;28;20099;-76
2021/07/27 11:09:49;;;;;;;16.38;4.38;;;743.20;1484.80;;;;;;5070534;28;20090;-77
2021/07/27 11:12:40;;;;;;;19.30;4.63;;;743.10;1484.80;;;;;;5072601;28;20415;-75
2021/07/27 11:15:13;;;;;;;23.08;5.45;;;743.20;1484.80;;;;;;5072823;28;20444;-75
2021/07/27 11:17:44;;;;;;;28.10;5.95;;;743.10;1484.80;;;;;;5072732;28;20025;-77
2021/07/27 11:20:12;;;;;;;42.78;6.18;;;743.10;1484.80;;;;;;5072793;28;20036;-75
2021/07/27 11:22:41;;;;;;;44.90;6.90;;;743.10;1510.40;;;;;;5072633;28;20021;-74
2021/07/27 11:25:08;;;;;;;44.40;7.20;;;743.10;1484.80;;;;;;5070674;28;20035;-74
2021/07/27 11:27:34;;;;;;;36.00;7.07;;;743.20;1459.20;;;;;;5072166;28;20404;-76
2021/07/27 11:30:05;;;;;;;32.65;6.03;;;743.20;1433.60;;;;;;5072001;28;20032;-75
2021/07/27 11:32:42;;;;;;;27.33;5.50;;;768.00;1408.00;;;;;;5072123;28;20463;-76
2021/07/27 11:35:10;;;;;;;29.73;5.68;;;768.00;1382.40;;;;;;5069142;28;20025;-76
2021/07/27 11:37:36;;;;;;;31.50;6.07;;;743.30;1433.60;;;;;;5071627;28;20029;-75
2021/07/27 11:40:03;;;;;;;26.13;4.93;;;743.30;1408.00;;;;;;5072055;28;20384;-78
2021/07/27 11:42:30;;;;;;;25.88;5.78;;;743.30;1459.20;;;;;;5071046;28;20016;-75
2021/07/27 11:44:59;;;;;;;24.95;5.95;;;743.30;1433.60;;;;;;5071783;28;20060;-75
2021/07/27 11:47:26;;;;;;;31.48;4.30;;;743.30;1433.60;;;;;;5069004;28;20024;-73
2021/07/27 11:49:56;;;;;;;22.65;5.78;;;743.30;1433.60;;;;;;5071592;28;20035;-77
2021/07/27 11:52:29;;;;;;;42.72;6.45;;;743.30;1459.20;;;;;;5053892;28;20776;-75
2021/07/27 11:55:05;;;;;;;25.67;5.18;;;743.30;1459.20;;;;;;5069772;28;20017;-74
2021/07/27 11:57:31;;;;;;;22.73;5.72;;;743.30;1433.60;;;;;;5071761;28;20052;-75
2021/07/27 12:00:11;;;;;;;19.30;5.05;;;768.00;1433.60;;;;;;5071203;28;20033;-75
2021/07/27 12:02:37;;;;;;;24.52;5.28;;;768.20;1408.00;;;;;;5069506;28;20012;-74
2021/07/27 12:05:05;;;;;;;19.20;4.85;;;768.10;1459.20;;;;;;5071301;28;20054;-74
2021/07/27 12:07:31;;;;;;;27.88;5.57;;;768.00;1408.00;;;;;;5071504;28;20032;-75
2021/07/27 12:09:57;;;;;;;24.73;5.95;;;768.00;1408.00;;;;;;5071366;28;20027;-74
2021/07/27 12:12:23;;;;;;;23.20;4.88;;;768.00;1433.60;;;;;;5070997;28;20434;-78
2021/07/27 12:14:48;;;;;;;21.52;5.30;;;768.00;1433.60;;;;;;5071638;28;20017;-76
2021/07/27 12:17:14;;;;;;;26.58;5.35;;;768.00;1382.40;;;;;;5071243;28;20078;-74
2021/07/27 12:19:41;;;;;;;25.85;5.20;;;768.00;1433.60;;;;;;5071267;28;20032;-74
2021/07/27 12:22:08;;;;;;;29.58;4.88;;;768.20;1382.40;;;;;;5068284;28;20073;-74
2021/07/27 12:24:34;;;;;;;19.30;5.40;;;768.10;1382.40;;;;;;5070534;28;20464;-75